createdAt,value
2022-08-02T00:01:00.960Z,16.77
2022-08-02T00:06:05.887Z,16.72
2022-08-02T00:11:09.277Z,16.65
2022-08-02T00:16:16.820Z,16.61
2022-08-02T00:21:21.949Z,16.54
2022-08-02T00:26:25.329Z,16.47
2022-08-02T00:31:28.652Z,16.41
2022-08-02T00:36:33.405Z,16.31
2022-08-02T00:41:46.628Z,16.51
2022-08-02T00:46:50.016Z,16.56
2022-08-02T00:51:54.805Z,16.40
2022-08-02T00:56:58.182Z,16.39
2022-08-02T01:02:01.678Z,16.38
2022-08-02T01:07:12.072Z,16.31
2022-08-02T01:12:16.924Z,16.18
2022-08-02T01:17:24.818Z,16.08
2022-08-02T01:23:01.724Z,15.98
2022-08-02T01:28:27.891Z,15.94
2022-08-02T01:33:37.407Z,15.85
2022-08-02T01:38:43.531Z,16.04
2022-08-02T01:43:50.942Z,16.22
2022-08-02T01:48:57.533Z,16.19
2022-08-02T01:54:01.005Z,16.06
2022-08-02T01:59:10.719Z,16.02
2022-08-02T02:04:17.086Z,15.94
2022-08-02T02:09:22.088Z,15.83
2022-08-02T02:14:29.571Z,15.91
2022-08-02T02:19:35.407Z,15.90
2022-08-02T02:24:38.783Z,15.96
2022-08-02T02:29:48.442Z,16.17
2022-08-02T02:34:53.862Z,16.17
2022-08-02T02:39:59.382Z,16.15
2022-08-02T02:45:05.770Z,16.18
2022-08-02T02:50:11.578Z,16.31
2022-08-02T02:55:15.599Z,16.49
2022-08-02T03:00:40.862Z,16.73
2022-08-02T03:05:44.262Z,16.88
2022-08-02T03:10:48.497Z,16.99
2022-08-02T03:15:54.725Z,17.09
2022-08-02T03:21:00.883Z,17.64
2022-08-02T03:26:04.443Z,18.10
2022-08-02T03:31:09.279Z,18.33
2022-08-02T03:36:15.007Z,18.48
2022-08-02T03:41:19.406Z,18.70
2022-08-02T03:46:25.210Z,19.05
2022-08-02T03:51:28.734Z,19.64
2022-08-02T03:56:33.283Z,20.18
2022-08-02T04:01:38.041Z,24.58
2022-08-02T04:06:41.638Z,28.81
2022-08-02T04:11:45.218Z,30.52
2022-08-02T04:16:54.036Z,32.34
2022-08-02T04:22:01.116Z,33.50
2022-08-02T04:27:19.087Z,35.29
2022-08-02T04:32:32.155Z,35.85
2022-08-02T04:37:35.832Z,37.09
2022-08-02T04:42:39.934Z,38.30
2022-08-02T04:48:02.491Z,39.13
2022-08-02T04:53:07.079Z,39.05
2022-08-02T04:58:38.248Z,38.51
2022-08-02T05:03:35.284Z,39.82
2022-08-02T05:08:38.615Z,40.17
2022-08-02T05:13:59.279Z,42.36
2022-08-02T05:19:04.528Z,42.48
2022-08-02T05:24:08.713Z,42.13
2022-08-02T05:29:12.075Z,40.46
2022-08-02T05:34:16.955Z,37.81
2022-08-02T05:39:20.226Z,37.13
2022-08-02T05:44:24.527Z,41.53
2022-08-02T05:49:29.424Z,43.92
2022-08-02T05:54:42.802Z,44.72
2022-08-02T05:59:58.682Z,44.97
2022-08-02T06:05:06.960Z,45.54
2022-08-02T06:10:13.403Z,44.80
2022-08-02T06:15:18.755Z,45.07
2022-08-02T06:20:25.384Z,45.24
2022-08-02T06:25:50.616Z,44.67
2022-08-02T06:30:54.267Z,43.52
2022-08-02T06:36:05.187Z,41.20
2022-08-02T06:41:10.960Z,40.69
2022-08-02T06:47:09.230Z,42.76
2022-08-02T06:51:42.226Z,44.31
2022-08-02T06:56:46.815Z,43.02
2022-08-02T07:01:51.262Z,42.95
2022-08-02T07:06:57.116Z,40.89
2022-08-02T07:12:00.440Z,41.33
2022-08-02T07:17:03.940Z,42.77
2022-08-02T07:22:08.697Z,42.99
2022-08-02T07:27:12.878Z,43.42
2022-08-02T07:32:17.363Z,42.59
2022-08-02T07:37:54.176Z,41.39
2022-08-02T07:42:47.228Z,37.76
2022-08-02T07:47:51.514Z,35.63
2022-08-02T07:52:58.029Z,33.83
2022-08-02T07:58:01.617Z,32.62
2022-08-02T08:03:05.253Z,32.82
2022-08-02T08:08:15.245Z,31.65
2022-08-02T08:13:20.670Z,30.32
2022-08-02T08:18:24.212Z,32.25
2022-08-02T08:23:28.934Z,32.52
2022-08-02T08:28:32.374Z,32.19
2022-08-02T08:33:35.755Z,31.72
2022-08-02T08:38:40.591Z,31.42
2022-08-02T08:43:44.011Z,31.11
2022-08-02T08:48:50.514Z,30.46
2022-08-02T08:53:58.350Z,30.03
2022-08-02T08:59:01.866Z,29.85
2022-08-02T09:04:05.351Z,29.60
2022-08-02T09:09:10.460Z,29.56
2022-08-02T09:14:28.101Z,28.96
2022-08-02T09:19:31.442Z,29.03
2022-08-02T09:24:43.961Z,28.29
2022-08-02T09:35:12.006Z,29.00
2022-08-02T09:40:16.816Z,28.48
2022-08-02T09:45:20.375Z,29.22
2022-08-02T09:50:23.700Z,29.45
2022-08-02T09:55:28.346Z,29.95
2022-08-02T10:00:52.029Z,29.75
2022-08-02T10:06:03.158Z,29.20
2022-08-02T10:11:08.244Z,29.58
2022-08-02T10:16:12.043Z,29.12
2022-08-02T10:21:18.685Z,29.71
2022-08-02T10:26:23.737Z,29.22
2022-08-02T10:31:32.022Z,28.54
2022-08-02T10:36:36.241Z,28.75
2022-08-02T10:41:46.230Z,28.30
2022-08-02T10:46:49.651Z,27.93
2022-08-02T10:51:59.778Z,27.64
2022-08-02T10:57:15.451Z,27.98
2022-08-02T11:02:42.916Z,27.54
2022-08-02T11:07:49.599Z,28.14
2022-08-02T11:13:06.899Z,27.89
2022-08-02T11:18:10.388Z,27.82
2022-08-02T11:23:44.568Z,27.63
2022-08-02T11:28:52.031Z,27.58
2022-08-02T11:33:56.094Z,27.79
2022-08-02T11:39:10.528Z,27.68
2022-08-02T11:44:15.362Z,28.07
2022-08-02T11:49:20.568Z,27.83
2022-08-02T11:54:25.782Z,27.91
2022-08-02T11:59:30.637Z,27.32
2022-08-02T12:04:34.203Z,27.30
2022-08-02T12:09:41.289Z,27.42
2022-08-02T12:14:46.439Z,27.33
2022-08-02T12:19:50.076Z,27.15
2022-08-02T12:24:55.922Z,27.23
2022-08-02T12:30:08.882Z,27.25
2022-08-02T12:35:14.057Z,27.82
2022-08-02T12:40:28.270Z,28.43
2022-08-02T12:45:48.674Z,28.40
2022-08-02T12:50:53.809Z,28.87
2022-08-02T12:56:02.298Z,28.59
2022-08-02T13:01:08.327Z,28.40
2022-08-02T13:06:42.078Z,28.27
2022-08-02T13:11:35.119Z,28.46
2022-08-02T13:16:39.850Z,28.53
2022-08-02T13:22:02.691Z,28.18
2022-08-02T13:27:08.215Z,28.29
2022-08-02T13:32:14.434Z,27.82
2022-08-02T13:37:19.454Z,27.72
2022-08-02T13:42:23.135Z,27.83
2022-08-02T13:47:57.222Z,27.69
2022-08-02T13:52:51.919Z,27.10
2022-08-02T13:57:55.356Z,26.87
2022-08-02T14:03:00.186Z,27.03
2022-08-02T14:08:03.775Z,27.16
2022-08-02T14:13:07.645Z,27.34
2022-08-02T14:18:12.742Z,27.61
2022-08-02T14:23:16.109Z,27.63
2022-08-02T14:28:19.622Z,27.49
2022-08-02T14:33:24.148Z,27.40
2022-08-02T14:38:27.722Z,27.37
2022-08-02T14:43:51.868Z,27.15
2022-08-02T14:48:56.876Z,27.06
2022-08-02T14:54:03.201Z,27.15
2022-08-02T14:59:07.530Z,27.16
2022-08-02T15:04:12.409Z,27.17
2022-08-02T15:09:15.931Z,27.37
2022-08-02T15:14:22.204Z,27.43
2022-08-02T15:19:56.215Z,27.34
2022-08-02T15:24:54.785Z,27.19
2022-08-02T15:30:00.895Z,26.96
2022-08-02T15:35:06.824Z,26.90
2022-08-02T15:40:11.420Z,26.82
2022-08-02T15:45:15.799Z,26.67
2022-08-02T15:50:21.099Z,26.64
2022-08-02T15:55:24.632Z,26.59
2022-08-02T16:00:29.994Z,26.54
2022-08-02T16:05:34.981Z,26.50
2022-08-02T16:10:38.406Z,26.42
2022-08-02T16:15:41.914Z,26.37
2022-08-02T16:20:46.655Z,26.17
2022-08-02T16:25:50.062Z,25.86
2022-08-02T16:31:09.911Z,25.58
2022-08-02T16:36:19.545Z,25.70
2022-08-02T16:41:23.490Z,25.52
2022-08-02T16:46:46.793Z,25.40
2022-08-02T16:51:55.705Z,25.32
2022-08-02T16:56:59.109Z,25.15
2022-08-02T17:02:11.602Z,24.95
2022-08-02T17:08:08.395Z,24.80
2022-08-02T17:12:43.580Z,24.53
2022-08-02T17:17:47.102Z,24.28
2022-08-02T17:22:53.241Z,23.99
2022-08-02T17:27:57.191Z,23.64
2022-08-02T17:33:00.644Z,23.46
2022-08-02T17:38:06.306Z,23.23
2022-08-02T17:43:14.809Z,22.97
2022-08-02T17:48:20.095Z,22.73
2022-08-02T17:53:36.296Z,22.56
2022-08-02T17:58:51.848Z,22.33
2022-08-02T18:03:57.447Z,22.17
2022-08-02T18:09:03.090Z,22.00
2022-08-02T18:14:08.891Z,21.82
2022-08-02T18:19:16.855Z,21.67
2022-08-02T18:24:24.210Z,21.53
2022-08-02T18:29:30.184Z,21.32
2022-08-02T18:34:44.428Z,21.17
2022-08-02T18:39:52.536Z,21.00
2022-08-02T18:44:55.906Z,20.81
2022-08-02T18:50:00.403Z,20.69
2022-08-02T18:55:17.050Z,20.55
2022-08-02T19:00:25.784Z,20.43
2022-08-02T19:05:53.332Z,20.28
2022-08-02T19:10:56.394Z,20.13
2022-08-02T19:16:00.897Z,20.01
2022-08-02T19:21:05.500Z,19.92
2022-08-02T19:26:10.621Z,19.84
2022-08-02T19:31:14.098Z,19.72
2022-08-02T19:36:18.263Z,19.67
2022-08-02T19:41:23.579Z,19.61
2022-08-02T19:46:27.070Z,19.51
2022-08-02T19:51:49.983Z,19.43
2022-08-02T19:56:55.799Z,19.35
2022-08-02T20:02:01.123Z,19.23
2022-08-02T20:07:04.890Z,19.16
2022-08-02T20:12:10.782Z,19.02
2022-08-02T20:17:14.811Z,19.03
2022-08-02T20:22:18.614Z,18.98
2022-08-02T20:27:27.209Z,18.93
2022-08-02T20:32:33.536Z,18.83
2022-08-02T20:37:56.072Z,18.73
2022-08-02T20:43:01.974Z,18.70
2022-08-02T20:48:07.072Z,18.64
2022-08-02T20:53:23.797Z,18.57
2022-08-02T20:58:30.985Z,18.49
2022-08-02T21:03:39.981Z,18.27
2022-08-02T21:08:45.960Z,18.28
2022-08-02T21:14:08.699Z,18.27
2022-08-02T21:19:13.303Z,18.19
2022-08-02T21:24:16.706Z,18.16
2022-08-02T21:29:21.427Z,18.12
2022-08-02T21:34:27.380Z,18.08
2022-08-02T21:39:32.440Z,18.06
2022-08-02T21:44:37.201Z,18.04
2022-08-02T21:50:13.500Z,18.00
2022-08-02T21:55:07.983Z,17.99
2022-08-02T22:00:28.370Z,17.96
2022-08-02T22:05:37.200Z,17.89
2022-08-02T22:10:54.615Z,17.90
2022-08-02T22:16:00.128Z,17.92
2022-08-02T22:21:14.250Z,17.89
2022-08-02T22:26:19.989Z,17.91
2022-08-02T22:31:40.973Z,17.89
2022-08-02T22:36:45.774Z,17.75
2022-08-02T22:42:05.769Z,17.79
2022-08-02T22:47:14.759Z,17.75
2022-08-02T22:52:20.929Z,17.69
2022-08-02T22:57:30.734Z,17.70
2022-08-02T23:02:36.214Z,17.74
2022-08-02T23:07:41.690Z,17.69
2022-08-02T23:12:45.051Z,17.66
2022-08-02T23:18:07.105Z,17.60
2022-08-02T23:23:11.612Z,17.52
2022-08-02T23:28:15.219Z,17.46
2022-08-02T23:33:20.006Z,17.40
2022-08-02T23:38:23.349Z,17.31
2022-08-02T23:43:26.681Z,17.25
2022-08-02T23:48:31.631Z,17.20
2022-08-02T23:53:35.046Z,17.14
2022-08-02T23:58:41.814Z,17.05
